createdAt,value
2022-09-06T00:02:16.683Z,0.0
2022-09-06T00:04:47.577Z,0.0
2022-09-06T00:07:28.206Z,0.0
2022-09-06T00:09:58.822Z,0.0
2022-09-06T00:12:29.373Z,0.0
2022-09-06T00:14:59.975Z,0.0
2022-09-06T00:17:30.757Z,0.0
2022-09-06T00:20:01.360Z,0.0
2022-09-06T00:22:41.950Z,0.0
2022-09-06T00:27:52.682Z,0.0
2022-09-06T00:30:23.275Z,0.0
2022-09-06T00:32:53.853Z,0.0
2022-09-06T00:35:34.418Z,0.0
2022-09-06T00:38:05.004Z,0.0
2022-09-06T00:40:35.602Z,0.0
2022-09-06T00:43:06.183Z,0.0
2022-09-06T00:45:36.799Z,0.0
2022-09-06T00:48:07.356Z,0.0
2022-09-06T00:50:47.962Z,0.0
2022-09-06T00:53:18.572Z,0.0
2022-09-06T00:55:49.188Z,0.0
2022-09-06T00:58:19.786Z,0.0
2022-09-06T01:00:50.429Z,0.0
2022-09-06T01:03:20.975Z,0.0
2022-09-06T01:08:31.823Z,0.0
2022-09-06T01:11:02.385Z,0.0
2022-09-06T01:13:32.983Z,0.0
2022-09-06T01:16:03.749Z,0.0
2022-09-06T01:18:34.449Z,0.0
2022-09-06T01:21:15.049Z,0.0
2022-09-06T01:23:45.620Z,0.0
2022-09-06T01:26:16.207Z,0.0
2022-09-06T01:28:46.899Z,0.0
2022-09-06T01:31:17.650Z,0.0
2022-09-06T01:33:58.287Z,0.2
2022-09-06T01:36:28.977Z,0.0
2022-09-06T01:38:59.592Z,0.0
2022-09-06T01:41:30.210Z,0.0
2022-09-06T01:44:00.864Z,0.0
2022-09-06T01:49:11.596Z,0.0
2022-09-06T01:51:42.169Z,0.0
2022-09-06T01:54:12.765Z,0.0
2022-09-06T01:56:43.361Z,0.0
2022-09-06T01:59:13.948Z,0.0
2022-09-06T02:01:44.675Z,0.0
2022-09-06T02:04:25.318Z,0.2
2022-09-06T02:06:55.903Z,0.2
2022-09-06T02:09:26.536Z,0.0
2022-09-06T02:11:57.114Z,0.0
2022-09-06T02:14:27.759Z,0.0
2022-09-06T02:16:58.551Z,0.0
2022-09-06T02:19:39.236Z,0.0
2022-09-06T02:22:09.826Z,0.0
2022-09-06T02:24:40.421Z,0.0
2022-09-06T02:29:41.201Z,0.0
2022-09-06T02:32:21.801Z,0.0
2022-09-06T02:34:52.405Z,0.0
2022-09-06T02:37:22.976Z,0.0
2022-09-06T02:39:53.833Z,0.0
2022-09-06T02:42:24.494Z,0.0
2022-09-06T02:44:55.113Z,0.0
2022-09-06T02:47:35.714Z,0.5
2022-09-06T02:50:06.266Z,0.5
2022-09-06T02:52:36.851Z,0.0
2022-09-06T02:55:07.477Z,0.0
2022-09-06T02:57:48.071Z,0.0
2022-09-06T03:00:18.660Z,0.5
2022-09-06T03:02:59.500Z,0.2
2022-09-06T03:05:30.093Z,0.0
2022-09-06T03:10:30.847Z,0.0
2022-09-06T03:13:01.418Z,0.0
2022-09-06T03:15:32.032Z,0.0
2022-09-06T03:18:12.664Z,0.0
2022-09-06T03:20:47.260Z,0.0
2022-09-06T03:23:07.810Z,0.0
2022-09-06T03:25:38.378Z,0.0
2022-09-06T03:28:08.944Z,0.0
2022-09-06T03:30:39.763Z,0.0
2022-09-06T03:33:23.243Z,0.0
2022-09-06T03:35:53.841Z,0.0
2022-09-06T03:38:24.543Z,0.0
2022-09-06T03:40:55.216Z,0.0
2022-09-06T03:43:25.823Z,0.0
2022-09-06T03:46:06.582Z,0.0
2022-09-06T03:51:07.381Z,0.0
2022-09-06T03:53:37.989Z,0.0
2022-09-06T03:56:08.592Z,0.0
2022-09-06T03:58:39.282Z,0.0
2022-09-06T04:01:20.169Z,0.0
2022-09-06T04:03:50.835Z,0.0
2022-09-06T04:06:21.442Z,0.0
2022-09-06T04:08:52.056Z,0.0
2022-09-06T04:11:22.639Z,0.0
2022-09-06T04:13:53.255Z,0.0
2022-09-06T04:16:33.952Z,0.0
2022-09-06T04:19:04.596Z,0.0
2022-09-06T04:21:35.170Z,0.0
2022-09-06T04:24:05.783Z,0.0
2022-09-06T04:26:36.357Z,0.0
2022-09-06T04:31:47.275Z,0.0
2022-09-06T04:34:17.945Z,0.0
2022-09-06T04:36:48.632Z,0.0
2022-09-06T04:39:19.233Z,0.0
2022-09-06T04:41:49.819Z,0.0
2022-09-06T04:44:40.459Z,0.0
2022-09-06T04:47:11.083Z,0.0
2022-09-06T04:49:41.691Z,0.0
2022-09-06T04:52:12.264Z,0.0
2022-09-06T04:54:42.864Z,0.0
2022-09-06T04:57:13.471Z,0.0
2022-09-06T04:59:54.120Z,0.0
2022-09-06T05:02:24.854Z,0.0
2022-09-06T05:04:55.455Z,0.0
2022-09-06T05:07:26.047Z,0.0
2022-09-06T05:12:26.741Z,0.0
2022-09-06T05:15:07.344Z,0.0
2022-09-06T05:17:37.940Z,0.0
2022-09-06T05:20:08.578Z,0.0
2022-09-06T05:22:39.187Z,0.0
2022-09-06T05:25:09.805Z,0.0
2022-09-06T05:27:40.395Z,0.0
2022-09-06T05:30:21.017Z,0.0
2022-09-06T05:32:51.594Z,0.0
2022-09-06T05:35:22.217Z,0.0
2022-09-06T05:37:52.806Z,0.0
2022-09-06T05:40:23.547Z,1.1
2022-09-06T05:42:54.206Z,0.0
2022-09-06T05:45:34.973Z,0.0
2022-09-06T05:48:05.615Z,0.0
2022-09-06T05:53:06.330Z,0.5
2022-09-06T05:55:40.054Z,0.0
2022-09-06T05:58:22.989Z,0.2
2022-09-06T06:00:53.643Z,0.5
2022-09-06T06:03:24.273Z,0.0
2022-09-06T06:05:54.830Z,0.0
2022-09-06T06:08:25.458Z,0.0
2022-09-06T06:10:59.023Z,0.0
2022-09-06T06:13:29.634Z,0.2
2022-09-06T06:16:00.304Z,0.0
2022-09-06T06:18:31.088Z,0.2
2022-09-06T06:21:01.673Z,0.0
2022-09-06T06:23:32.290Z,0.8
2022-09-06T06:26:02.855Z,0.5
2022-09-06T06:28:43.530Z,0.0
2022-09-06T06:33:44.262Z,0.2
2022-09-06T06:36:14.850Z,0.8
2022-09-06T06:38:45.443Z,0.5
2022-09-06T06:41:27.502Z,0.5
2022-09-06T06:43:58.425Z,1.3
2022-09-06T06:46:29.299Z,0.2
2022-09-06T06:49:04.821Z,0.0
2022-09-06T06:51:35.457Z,0.0
2022-09-06T06:54:06.045Z,0.0
2022-09-06T06:56:46.652Z,0.0
2022-09-06T06:59:17.276Z,0.0
2022-09-06T07:01:48.284Z,0.0
2022-09-06T07:04:18.937Z,0.0
2022-09-06T07:07:49.596Z,0.2
2022-09-06T07:09:20.151Z,1.1
2022-09-06T07:14:30.908Z,0.0
2022-09-06T07:17:02.610Z,0.0
2022-09-06T07:20:25.764Z,0.0
2022-09-06T07:22:06.483Z,0.0
2022-09-06T07:24:38.262Z,0.0
2022-09-06T07:27:56.005Z,0.0
2022-09-06T07:29:46.559Z,0.0
2022-09-06T07:32:32.893Z,0.0
2022-09-06T07:34:43.484Z,0.0
2022-09-06T07:37:14.092Z,0.0
2022-09-06T07:39:44.843Z,0.0
2022-09-06T07:42:25.485Z,1.3
2022-09-06T07:44:56.074Z,0.0
2022-09-06T07:48:09.390Z,0.5
2022-09-06T07:55:16.683Z,0.5
2022-09-06T07:57:47.287Z,0.2
2022-09-06T08:00:17.909Z,0.2
2022-09-06T08:02:48.535Z,0.2
2022-09-06T08:06:15.714Z,0.0
2022-09-06T08:09:04.746Z,0.5
2022-09-06T08:10:28.815Z,1.1
2022-09-06T08:12:59.381Z,0.0
2022-09-06T08:15:29.957Z,0.0
2022-09-06T08:18:00.559Z,0.5
2022-09-06T08:20:31.242Z,1.6
2022-09-06T08:23:01.847Z,0.0
2022-09-06T08:25:42.460Z,0.8
2022-09-06T08:28:13.039Z,2.2
2022-09-06T08:30:43.628Z,2.5
2022-09-06T08:35:44.380Z,0.2
2022-09-06T08:38:14.986Z,0.5
2022-09-06T08:40:55.588Z,0.2
2022-09-06T08:43:26.257Z,2.5
2022-09-06T08:45:56.932Z,1.9
2022-09-06T08:48:27.555Z,2.2
2022-09-06T08:50:58.143Z,2.2
2022-09-06T08:53:37.944Z,1.6
2022-09-06T08:56:08.527Z,0.5
2022-09-06T08:58:39.414Z,0.0
2022-09-06T09:01:10.213Z,0.0
2022-09-06T09:03:40.870Z,0.5
2022-09-06T09:06:11.517Z,1.1
2022-09-06T09:08:52.176Z,2.2
2022-09-06T09:11:22.768Z,0.5
2022-09-06T09:16:23.667Z,0.0
2022-09-06T09:18:54.336Z,0.0
2022-09-06T09:21:29.724Z,1.1
2022-09-06T09:24:11.116Z,1.6
2022-09-06T09:26:41.692Z,0.8
2022-09-06T09:29:12.278Z,0.0
2022-09-06T09:31:43.079Z,1.9
2022-09-06T09:34:13.720Z,17.5
2022-09-06T09:39:23.632Z,2.2
2022-09-06T09:41:54.252Z,4.4
2022-09-06T09:44:25.516Z,1.6
2022-09-06T09:46:56.285Z,1.6
2022-09-06T09:49:26.941Z,1.1
2022-09-06T09:51:57.505Z,1.9
2022-09-06T09:57:11.210Z,4.1
2022-09-06T09:59:42.288Z,1.9
2022-09-06T10:02:12.862Z,3.8
2022-09-06T10:05:06.088Z,2.7
2022-09-06T10:07:27.682Z,1.6
2022-09-06T10:09:58.309Z,2.7
2022-09-06T10:12:28.997Z,3.0
2022-09-06T10:15:02.305Z,2.5
2022-09-06T10:17:24.311Z,1.9
2022-09-06T10:19:54.914Z,1.6
2022-09-06T10:22:35.526Z,3.3
2022-09-06T10:25:06.137Z,3.6
2022-09-06T10:27:39.921Z,2.2
2022-09-06T10:30:13.199Z,2.7
2022-09-06T10:32:43.795Z,3.0
2022-09-06T10:37:54.528Z,2.7
2022-09-06T10:40:25.207Z,3.8
2022-09-06T10:42:55.779Z,14.7
2022-09-06T10:45:26.438Z,4.1
2022-09-06T10:47:57.024Z,2.2
2022-09-06T10:50:37.611Z,4.1
2022-09-06T10:53:08.167Z,3.8
2022-09-06T10:55:38.799Z,3.8
2022-09-06T11:00:38.383Z,3.0
2022-09-06T11:03:55.602Z,3.3
2022-09-06T11:06:00.841Z,1.9
2022-09-06T11:09:00.006Z,3.0
2022-09-06T11:10:50.618Z,1.6
2022-09-06T11:13:21.198Z,4.1
2022-09-06T11:18:21.969Z,1.9
2022-09-06T11:21:02.603Z,3.0
2022-09-06T11:23:33.465Z,4.7
2022-09-06T11:26:04.046Z,4.4
2022-09-06T11:28:34.656Z,3.6
2022-09-06T11:31:05.762Z,1.1
2022-09-06T11:33:36.443Z,3.0
2022-09-06T11:36:17.047Z,2.5
2022-09-06T11:38:47.627Z,4.1
2022-09-06T11:41:21.790Z,5.2
2022-09-06T11:43:52.410Z,5.2
2022-09-06T11:46:25.630Z,5.8
2022-09-06T11:48:56.247Z,2.2
2022-09-06T11:51:36.857Z,3.6
2022-09-06T11:54:07.447Z,2.2
2022-09-06T11:59:08.196Z,2.2
2022-09-06T12:01:38.789Z,3.8
2022-09-06T12:04:28.150Z,3.6
2022-09-06T12:06:48.750Z,7.5
2022-09-06T12:09:19.359Z,3.3
2022-09-06T12:11:51.049Z,1.9
2022-09-06T12:14:21.634Z,2.7
2022-09-06T12:16:52.199Z,2.5
2022-09-06T12:19:32.823Z,5.8
2022-09-06T12:22:03.447Z,3.0
2022-09-06T12:24:34.046Z,3.6
2022-09-06T12:27:05.939Z,3.8
2022-09-06T12:29:36.540Z,3.6
2022-09-06T12:32:07.280Z,4.7
2022-09-06T12:34:47.934Z,3.0
2022-09-06T12:39:48.861Z,3.3
2022-09-06T12:42:19.499Z,3.3
2022-09-06T12:44:50.106Z,4.1
2022-09-06T12:47:20.725Z,2.5
2022-09-06T12:50:01.341Z,1.1
2022-09-06T12:52:31.934Z,4.4
2022-09-06T12:55:02.554Z,3.8
2022-09-06T12:57:33.162Z,0.8
2022-09-06T13:00:04.041Z,1.6
2022-09-06T13:02:45.181Z,2.5
2022-09-06T13:07:46.009Z,2.7
2022-09-06T13:10:16.653Z,3.6
2022-09-06T13:12:47.252Z,1.6
2022-09-06T13:15:17.835Z,2.2
2022-09-06T13:20:28.591Z,3.0
2022-09-06T13:22:59.205Z,3.8
2022-09-06T13:25:31.157Z,2.5
2022-09-06T13:28:01.775Z,2.7
2022-09-06T13:30:32.386Z,3.6
2022-09-06T13:33:13.002Z,2.5
2022-09-06T13:35:43.602Z,3.0
2022-09-06T13:38:14.197Z,13.3
2022-09-06T13:41:11.797Z,5.0
2022-09-06T13:43:14.086Z,3.6
2022-09-06T13:45:44.685Z,3.8
2022-09-06T13:48:48.679Z,1.9
2022-09-06T13:50:59.225Z,3.6
2022-09-06T13:53:29.820Z,5.0
2022-09-06T13:56:00.416Z,4.1
2022-09-06T14:01:11.289Z,2.5
2022-09-06T14:03:41.924Z,2.7
2022-09-06T14:06:12.550Z,3.8
2022-09-06T14:09:07.583Z,3.6
2022-09-06T14:11:18.551Z,3.0
2022-09-06T14:13:49.120Z,3.6
2022-09-06T14:16:29.889Z,2.5
2022-09-06T14:19:00.495Z,0.5
2022-09-06T14:21:31.100Z,2.7
2022-09-06T14:24:04.267Z,1.1
2022-09-06T14:26:35.156Z,1.6
2022-09-06T14:29:05.744Z,2.2
2022-09-06T14:31:46.659Z,2.5
2022-09-06T14:34:17.257Z,1.1
2022-09-06T14:36:47.835Z,0.8
2022-09-06T14:41:48.535Z,6.6
2022-09-06T14:44:19.143Z,9.1
2022-09-06T14:46:59.840Z,2.5
2022-09-06T14:49:30.573Z,1.3
2022-09-06T14:52:01.131Z,1.9
2022-09-06T14:54:36.250Z,0.8
2022-09-06T14:56:56.835Z,0.8
2022-09-06T14:59:37.443Z,1.1
2022-09-06T15:02:08.304Z,1.6
2022-09-06T15:04:38.937Z,1.1
2022-09-06T15:07:09.550Z,1.6
2022-09-06T15:09:40.180Z,0.2
2022-09-06T15:12:10.784Z,0.0
2022-09-06T15:14:51.416Z,1.1
2022-09-06T15:17:22.013Z,2.7
2022-09-06T15:22:32.770Z,1.3
2022-09-06T15:25:03.395Z,0.8
2022-09-06T15:27:33.987Z,0.2
2022-09-06T15:30:14.554Z,0.8
2022-09-06T15:32:45.159Z,0.2
2022-09-06T15:35:15.784Z,0.8
2022-09-06T15:37:46.384Z,1.3
2022-09-06T15:40:17.471Z,1.6
2022-09-06T15:42:58.092Z,0.5
2022-09-06T15:45:28.698Z,0.5
2022-09-06T15:47:59.274Z,1.3
2022-09-06T15:50:57.616Z,1.6
2022-09-06T15:52:58.173Z,0.2
2022-09-06T15:55:28.771Z,1.3
2022-09-06T15:58:09.380Z,0.5
2022-09-06T16:03:10.248Z,1.3
2022-09-06T16:06:42.728Z,0.8
2022-09-06T16:08:13.292Z,1.3
2022-09-06T16:10:43.912Z,0.0
2022-09-06T16:13:24.500Z,1.1
2022-09-06T16:15:55.091Z,0.5
2022-09-06T16:18:26.776Z,0.0
2022-09-06T16:20:57.393Z,0.2
2022-09-06T16:23:28.003Z,0.2
2022-09-06T16:25:58.599Z,0.2
2022-09-06T16:28:39.471Z,1.1
2022-09-06T16:31:10.291Z,1.9
2022-09-06T16:33:40.956Z,1.9
2022-09-06T16:36:11.573Z,0.2
2022-09-06T16:38:42.186Z,0.8
2022-09-06T16:43:52.910Z,2.2
2022-09-06T16:46:23.808Z,0.5
2022-09-06T16:48:54.447Z,0.2
2022-09-06T16:51:25.019Z,0.2
2022-09-06T16:53:55.644Z,0.0
2022-09-06T16:59:06.388Z,0.0
2022-09-06T17:01:37.491Z,0.2
2022-09-06T17:04:08.136Z,0.2
2022-09-06T17:06:38.728Z,0.0
2022-09-06T17:09:09.314Z,0.0
2022-09-06T17:11:50.258Z,0.0
2022-09-06T17:14:21.005Z,0.0
2022-09-06T17:16:51.804Z,0.0
2022-09-06T17:19:22.437Z,0.0
2022-09-06T17:24:33.217Z,0.5
2022-09-06T17:27:03.795Z,0.5
2022-09-06T17:29:34.373Z,0.0
2022-09-06T17:32:04.945Z,0.0
2022-09-06T17:34:35.544Z,0.0
2022-09-06T17:37:06.156Z,0.0
2022-09-06T17:39:47.022Z,0.0
2022-09-06T17:42:17.623Z,0.0
2022-09-06T17:44:48.253Z,0.0
2022-09-06T17:47:33.745Z,0.0
2022-09-06T17:49:54.361Z,0.0
2022-09-06T17:52:24.937Z,0.0
2022-09-06T17:55:05.554Z,0.0
2022-09-06T17:57:36.158Z,0.0
2022-09-06T18:00:06.751Z,0.0
2022-09-06T18:05:07.772Z,0.0
2022-09-06T18:10:18.649Z,0.0
2022-09-06T18:12:49.271Z,0.0
2022-09-06T18:15:19.884Z,0.0
2022-09-06T18:17:50.469Z,0.0
2022-09-06T18:20:21.051Z,0.0
2022-09-06T18:23:01.669Z,0.0
2022-09-06T18:25:32.310Z,0.0
2022-09-06T18:28:02.894Z,0.0
2022-09-06T18:30:35.407Z,0.0
2022-09-06T18:33:06.009Z,0.0
2022-09-06T18:35:36.623Z,0.0
2022-09-06T18:38:17.228Z,0.0
2022-09-06T18:40:47.829Z,0.0
2022-09-06T18:45:48.767Z,0.0
2022-09-06T18:48:19.408Z,0.0
2022-09-06T18:50:49.977Z,0.0
2022-09-06T18:53:30.794Z,0.0
2022-09-06T18:56:01.416Z,0.0
2022-09-06T18:58:32.026Z,0.0
2022-09-06T19:01:02.929Z,0.0
2022-09-06T19:03:33.552Z,0.0
2022-09-06T19:06:04.152Z,0.0
2022-09-06T19:08:44.838Z,0.0
2022-09-06T19:11:15.423Z,0.0
2022-09-06T19:13:46.070Z,0.0
2022-09-06T19:16:16.792Z,0.0
2022-09-06T19:18:47.443Z,0.0
2022-09-06T19:21:28.072Z,0.0
2022-09-06T19:26:28.838Z,0.0
2022-09-06T19:28:59.418Z,0.0
2022-09-06T19:31:30.167Z,0.0
2022-09-06T19:34:00.837Z,0.0
2022-09-06T19:36:41.435Z,0.0
2022-09-06T19:39:23.728Z,0.0
2022-09-06T19:41:44.310Z,0.0
2022-09-06T19:44:14.912Z,0.0
2022-09-06T19:46:46.286Z,0.0
2022-09-06T19:49:17.034Z,0.0
2022-09-06T19:51:57.624Z,0.0
2022-09-06T19:54:28.227Z,0.0
2022-09-06T19:56:58.822Z,0.0
2022-09-06T19:59:29.451Z,0.0
2022-09-06T20:02:00.268Z,0.0
2022-09-06T20:07:11.046Z,0.0
2022-09-06T20:09:41.681Z,0.0
2022-09-06T20:12:12.272Z,0.0
2022-09-06T20:14:42.886Z,0.0
2022-09-06T20:17:42.435Z,0.0
2022-09-06T20:19:42.987Z,0.0
2022-09-06T20:22:23.607Z,0.0
2022-09-06T20:24:54.225Z,0.0
2022-09-06T20:27:24.808Z,0.0
2022-09-06T20:29:55.402Z,0.0
2022-09-06T20:32:26.042Z,0.0
2022-09-06T20:35:06.676Z,0.0
2022-09-06T20:37:37.274Z,0.0
2022-09-06T20:40:18.064Z,0.0
2022-09-06T20:42:48.631Z,0.0
2022-09-06T20:47:49.381Z,0.0
2022-09-06T20:50:29.972Z,0.0
2022-09-06T20:53:00.545Z,0.0
2022-09-06T20:55:31.136Z,0.0
2022-09-06T20:58:01.732Z,0.0
2022-09-06T21:00:34.851Z,0.0
2022-09-06T21:02:55.416Z,0.0
2022-09-06T21:05:36.014Z,0.0
2022-09-06T21:08:06.594Z,0.0
2022-09-06T21:10:47.196Z,0.0
2022-09-06T21:13:17.783Z,0.0
2022-09-06T21:15:48.386Z,0.0
2022-09-06T21:18:18.998Z,0.0
2022-09-06T21:20:59.611Z,0.0
2022-09-06T21:23:30.211Z,0.0
2022-09-06T21:28:30.945Z,0.0
2022-09-06T21:31:01.651Z,0.0
2022-09-06T21:33:42.272Z,0.0
2022-09-06T21:36:12.862Z,0.0
2022-09-06T21:38:43.500Z,0.0
2022-09-06T21:41:14.059Z,0.0
2022-09-06T21:43:44.643Z,0.0
2022-09-06T21:46:15.414Z,0.0
2022-09-06T21:48:56.083Z,0.0
2022-09-06T21:51:26.692Z,0.0
2022-09-06T21:53:57.312Z,0.0
2022-09-06T21:56:27.904Z,0.0
2022-09-06T21:58:58.505Z,0.0
2022-09-06T22:01:29.348Z,0.0
2022-09-06T22:04:09.981Z,0.0
2022-09-06T22:09:10.872Z,0.0
2022-09-06T22:11:41.630Z,0.0
2022-09-06T22:14:12.255Z,0.0
2022-09-06T22:16:43.271Z,0.0
2022-09-06T22:19:23.902Z,0.0
2022-09-06T22:21:54.489Z,0.0
2022-09-06T22:24:25.130Z,0.0
2022-09-06T22:26:55.720Z,0.0
2022-09-06T22:29:26.358Z,0.0
2022-09-06T22:32:07.140Z,0.0
2022-09-06T22:34:37.732Z,0.0
2022-09-06T22:37:08.408Z,0.0
2022-09-06T22:39:39.089Z,0.0
2022-09-06T22:42:09.689Z,0.0
2022-09-06T22:44:40.259Z,0.0
2022-09-06T22:49:50.995Z,0.0
2022-09-06T22:52:21.575Z,0.0
2022-09-06T22:54:52.147Z,0.0
2022-09-06T22:57:22.747Z,0.0
2022-09-06T22:59:53.332Z,0.0
2022-09-06T23:02:33.949Z,0.0
2022-09-06T23:05:04.768Z,0.0
2022-09-06T23:07:35.317Z,0.0
2022-09-06T23:10:05.938Z,0.0
2022-09-06T23:12:36.559Z,0.0
2022-09-06T23:15:07.152Z,0.0
2022-09-06T23:17:47.761Z,0.0
2022-09-06T23:20:18.346Z,0.0
2022-09-06T23:22:48.932Z,0.0
2022-09-06T23:25:19.572Z,0.0
2022-09-06T23:30:30.301Z,0.0
2022-09-06T23:33:00.893Z,0.0
2022-09-06T23:35:31.509Z,0.0
2022-09-06T23:38:02.123Z,0.0
2022-09-06T23:40:32.794Z,0.0
2022-09-06T23:43:03.383Z,0.0
2022-09-06T23:48:24.199Z,0.0
2022-09-06T23:50:54.830Z,0.0
2022-09-06T23:53:25.444Z,0.0
2022-09-06T23:55:56.056Z,0.0
2022-09-06T23:58:26.738Z,0.0
